sensor_id;sensor_type;location;lat;lon;timestamp;P1;durP1;ratioP1;P2;durP2;ratioP2
16354;SDS011;8287;51.644;8.494;2023-10-31T00:02:14;2.40;;;0.55;;
16354;SDS011;8287;51.644;8.494;2023-10-31T00:04:41;0.30;;;0.30;;
16354;SDS011;8287;51.644;8.494;2023-10-31T00:07:07;2.03;;;0.55;;
16354;SDS011;8287;51.644;8.494;2023-10-31T00:09:34;2.20;;;0.52;;
16354;SDS011;8287;51.644;8.494;2023-10-31T00:12:00;0.80;;;0.55;;
16354;SDS011;8287;51.644;8.494;2023-10-31T00:14:28;0.63;;;0.40;;
16354;SDS011;8287;51.644;8.494;2023-10-31T00:16:55;0.88;;;0.60;;
16354;SDS011;8287;51.644;8.494;2023-10-31T00:19:21;1.60;;;0.55;;
16354;SDS011;8287;51.644;8.494;2023-10-31T00:21:48;0.40;;;0.40;;
16354;SDS011;8287;51.644;8.494;2023-10-31T00:24:14;1.77;;;0.55;;
16354;SDS011;8287;51.644;8.494;2023-10-31T00:26:41;1.60;;;0.50;;
16354;SDS011;8287;51.644;8.494;2023-10-31T00:29:08;1.00;;;0.68;;
16354;SDS011;8287;51.644;8.494;2023-10-31T00:31:36;2.22;;;0.82;;
16354;SDS011;8287;51.644;8.494;2023-10-31T00:34:06;1.40;;;0.60;;
16354;SDS011;8287;51.644;8.494;2023-10-31T00:36:32;0.93;;;0.65;;
16354;SDS011;8287;51.644;8.494;2023-10-31T00:38:59;1.27;;;0.60;;
16354;SDS011;8287;51.644;8.494;2023-10-31T00:41:26;0.57;;;0.57;;
16354;SDS011;8287;51.644;8.494;2023-10-31T00:43:52;0.85;;;0.40;;
16354;SDS011;8287;51.644;8.494;2023-10-31T00:46:19;0.98;;;0.57;;
16354;SDS011;8287;51.644;8.494;2023-10-31T00:48:47;0.30;;;0.30;;
16354;SDS011;8287;51.644;8.494;2023-10-31T00:51:14;1.25;;;0.50;;
16354;SDS011;8287;51.644;8.494;2023-10-31T00:53:40;0.20;;;0.20;;
16354;SDS011;8287;51.644;8.494;2023-10-31T00:56:07;0.70;;;0.32;;
16354;SDS011;8287;51.644;8.494;2023-10-31T00:58:34;1.48;;;0.45;;
16354;SDS011;8287;51.644;8.494;2023-10-31T01:01:00;2.20;;;0.60;;
16354;SDS011;8287;51.644;8.494;2023-10-31T01:03:27;0.32;;;0.32;;
16354;SDS011;8287;51.644;8.494;2023-10-31T01:05:55;0.88;;;0.40;;
16354;SDS011;8287;51.644;8.494;2023-10-31T01:08:21;1.13;;;0.30;;
16354;SDS011;8287;51.644;8.494;2023-10-31T01:10:48;0.70;;;0.50;;
16354;SDS011;8287;51.644;8.494;2023-10-31T01:13:15;0.30;;;0.30;;
16354;SDS011;8287;51.644;8.494;2023-10-31T01:15:41;0.43;;;0.30;;
16354;SDS011;8287;51.644;8.494;2023-10-31T01:18:08;1.13;;;0.50;;
16354;SDS011;8287;51.644;8.494;2023-10-31T01:20:35;0.73;;;0.43;;
16354;SDS011;8287;51.644;8.494;2023-10-31T01:23:03;0.30;;;0.30;;
16354;SDS011;8287;51.644;8.494;2023-10-31T01:25:29;0.82;;;0.50;;
16354;SDS011;8287;51.644;8.494;2023-10-31T01:27:56;0.65;;;0.40;;
16354;SDS011;8287;51.644;8.494;2023-10-31T01:30:23;0.50;;;0.50;;
16354;SDS011;8287;51.644;8.494;2023-10-31T01:32:49;0.65;;;0.60;;
16354;SDS011;8287;51.644;8.494;2023-10-31T01:35:16;1.45;;;0.40;;
16354;SDS011;8287;51.644;8.494;2023-10-31T01:37:43;0.70;;;0.60;;
16354;SDS011;8287;51.644;8.494;2023-10-31T01:40:13;0.40;;;0.40;;
16354;SDS011;8287;51.644;8.494;2023-10-31T01:42:39;0.35;;;0.35;;
16354;SDS011;8287;51.644;8.494;2023-10-31T01:45:07;1.40;;;0.38;;
16354;SDS011;8287;51.644;8.494;2023-10-31T01:47:34;0.45;;;0.40;;
16354;SDS011;8287;51.644;8.494;2023-10-31T01:50:00;3.80;;;0.50;;
16354;SDS011;8287;51.644;8.494;2023-10-31T01:52:27;0.47;;;0.40;;
16354;SDS011;8287;51.644;8.494;2023-10-31T01:54:57;0.60;;;0.60;;
16354;SDS011;8287;51.644;8.494;2023-10-31T01:57:26;0.50;;;0.50;;
16354;SDS011;8287;51.644;8.494;2023-10-31T01:59:52;0.60;;;0.60;;
16354;SDS011;8287;51.644;8.494;2023-10-31T02:02:19;1.05;;;0.90;;
16354;SDS011;8287;51.644;8.494;2023-10-31T02:04:49;1.10;;;0.70;;
16354;SDS011;8287;51.644;8.494;2023-10-31T02:07:16;0.70;;;0.70;;
16354;SDS011;8287;51.644;8.494;2023-10-31T02:09:42;0.80;;;0.80;;
16354;SDS011;8287;51.644;8.494;2023-10-31T02:12:09;1.98;;;1.88;;
16354;SDS011;8287;51.644;8.494;2023-10-31T02:14:37;1.00;;;0.95;;
16354;SDS011;8287;51.644;8.494;2023-10-31T02:17:03;1.55;;;0.70;;
16354;SDS011;8287;51.644;8.494;2023-10-31T02:19:30;0.57;;;0.57;;
16354;SDS011;8287;51.644;8.494;2023-10-31T02:21:58;2.75;;;0.75;;
16354;SDS011;8287;51.644;8.494;2023-10-31T02:24:24;1.13;;;0.65;;
16354;SDS011;8287;51.644;8.494;2023-10-31T02:26:51;0.75;;;0.70;;
16354;SDS011;8287;51.644;8.494;2023-10-31T02:29:17;0.68;;;0.68;;
16354;SDS011;8287;51.644;8.494;2023-10-31T02:31:44;0.77;;;0.57;;
16354;SDS011;8287;51.644;8.494;2023-10-31T02:34:11;0.50;;;0.50;;
16354;SDS011;8287;51.644;8.494;2023-10-31T02:36:38;1.95;;;0.73;;
16354;SDS011;8287;51.644;8.494;2023-10-31T02:39:05;1.17;;;0.73;;
16354;SDS011;8287;51.644;8.494;2023-10-31T02:41:32;1.13;;;0.68;;
16354;SDS011;8287;51.644;8.494;2023-10-31T02:43:59;1.95;;;0.60;;
16354;SDS011;8287;51.644;8.494;2023-10-31T02:46:25;1.23;;;0.60;;
16354;SDS011;8287;51.644;8.494;2023-10-31T02:48:52;0.95;;;0.60;;
16354;SDS011;8287;51.644;8.494;2023-10-31T02:51:19;0.88;;;0.68;;
16354;SDS011;8287;51.644;8.494;2023-10-31T02:53:45;0.98;;;0.57;;
16354;SDS011;8287;51.644;8.494;2023-10-31T02:56:13;0.68;;;0.68;;
16354;SDS011;8287;51.644;8.494;2023-10-31T02:58:40;1.33;;;0.80;;
16354;SDS011;8287;51.644;8.494;2023-10-31T03:01:06;1.50;;;0.93;;
16354;SDS011;8287;51.644;8.494;2023-10-31T03:03:32;1.40;;;0.82;;
16354;SDS011;8287;51.644;8.494;2023-10-31T03:05:59;1.33;;;1.10;;
16354;SDS011;8287;51.644;8.494;2023-10-31T03:08:26;2.38;;;1.30;;
16354;SDS011;8287;51.644;8.494;2023-10-31T03:10:53;1.00;;;1.00;;
16354;SDS011;8287;51.644;8.494;2023-10-31T03:13:21;1.42;;;1.35;;
16354;SDS011;8287;51.644;8.494;2023-10-31T03:15:49;2.78;;;1.75;;
16354;SDS011;8287;51.644;8.494;2023-10-31T03:18:16;1.73;;;1.63;;
16354;SDS011;8287;51.644;8.494;2023-10-31T03:20:43;2.58;;;1.98;;
16354;SDS011;8287;51.644;8.494;2023-10-31T03:23:10;2.10;;;2.00;;
16354;SDS011;8287;51.644;8.494;2023-10-31T03:25:37;3.70;;;1.83;;
16354;SDS011;8287;51.644;8.494;2023-10-31T03:28:03;3.60;;;2.60;;
16354;SDS011;8287;51.644;8.494;2023-10-31T03:30:32;2.50;;;2.30;;
16354;SDS011;8287;51.644;8.494;2023-10-31T03:32:58;3.45;;;2.33;;
16354;SDS011;8287;51.644;8.494;2023-10-31T03:35:25;2.38;;;2.08;;
16354;SDS011;8287;51.644;8.494;2023-10-31T03:37:52;2.50;;;2.35;;
16354;SDS011;8287;51.644;8.494;2023-10-31T03:40:18;2.83;;;2.03;;
16354;SDS011;8287;51.644;8.494;2023-10-31T03:42:45;2.25;;;2.05;;
16354;SDS011;8287;51.644;8.494;2023-10-31T03:45:11;4.30;;;2.20;;
16354;SDS011;8287;51.644;8.494;2023-10-31T03:47:39;2.38;;;2.17;;
16354;SDS011;8287;51.644;8.494;2023-10-31T03:50:07;2.13;;;1.92;;
16354;SDS011;8287;51.644;8.494;2023-10-31T03:52:34;1.90;;;1.77;;
16354;SDS011;8287;51.644;8.494;2023-10-31T03:55:01;2.42;;;1.95;;
16354;SDS011;8287;51.644;8.494;2023-10-31T03:57:27;2.10;;;2.00;;
16354;SDS011;8287;51.644;8.494;2023-10-31T03:59:54;2.10;;;2.00;;
16354;SDS011;8287;51.644;8.494;2023-10-31T04:02:21;1.80;;;1.58;;
16354;SDS011;8287;51.644;8.494;2023-10-31T04:04:49;1.95;;;1.75;;
16354;SDS011;8287;51.644;8.494;2023-10-31T04:07:16;2.55;;;1.80;;
16354;SDS011;8287;51.644;8.494;2023-10-31T04:09:42;2.78;;;1.65;;
16354;SDS011;8287;51.644;8.494;2023-10-31T04:12:09;1.77;;;1.58;;
16354;SDS011;8287;51.644;8.494;2023-10-31T04:14:35;2.17;;;2.05;;
16354;SDS011;8287;51.644;8.494;2023-10-31T04:17:04;1.98;;;1.55;;
16354;SDS011;8287;51.644;8.494;2023-10-31T04:19:30;2.70;;;1.75;;
16354;SDS011;8287;51.644;8.494;2023-10-31T04:21:58;1.88;;;1.77;;
16354;SDS011;8287;51.644;8.494;2023-10-31T04:24:25;1.45;;;1.35;;
16354;SDS011;8287;51.644;8.494;2023-10-31T04:26:51;2.90;;;1.70;;
16354;SDS011;8287;51.644;8.494;2023-10-31T04:29:18;1.60;;;1.50;;
16354;SDS011;8287;51.644;8.494;2023-10-31T04:31:44;1.55;;;1.45;;
16354;SDS011;8287;51.644;8.494;2023-10-31T04:34:11;1.38;;;1.23;;
16354;SDS011;8287;51.644;8.494;2023-10-31T04:36:38;2.78;;;1.40;;
16354;SDS011;8287;51.644;8.494;2023-10-31T04:39:06;1.33;;;1.23;;
16354;SDS011;8287;51.644;8.494;2023-10-31T04:41:33;1.60;;;1.50;;
16354;SDS011;8287;51.644;8.494;2023-10-31T04:43:59;1.90;;;1.58;;
16354;SDS011;8287;51.644;8.494;2023-10-31T04:46:26;3.25;;;1.83;;
16354;SDS011;8287;51.644;8.494;2023-10-31T04:48:53;2.13;;;1.83;;
16354;SDS011;8287;51.644;8.494;2023-10-31T04:51:19;2.85;;;2.10;;
16354;SDS011;8287;51.644;8.494;2023-10-31T04:53:46;2.58;;;2.33;;
16354;SDS011;8287;51.644;8.494;2023-10-31T04:56:14;3.03;;;2.55;;
16354;SDS011;8287;51.644;8.494;2023-10-31T04:58:41;2.55;;;2.35;;
16354;SDS011;8287;51.644;8.494;2023-10-31T05:01:08;5.03;;;3.20;;
16354;SDS011;8287;51.644;8.494;2023-10-31T05:03:36;5.88;;;3.50;;
16354;SDS011;8287;51.644;8.494;2023-10-31T05:06:03;5.50;;;3.72;;
16354;SDS011;8287;51.644;8.494;2023-10-31T05:08:30;3.63;;;3.33;;
16354;SDS011;8287;51.644;8.494;2023-10-31T05:10:57;5.05;;;3.65;;
16354;SDS011;8287;51.644;8.494;2023-10-31T05:13:25;7.40;;;3.63;;
16354;SDS011;8287;51.644;8.494;2023-10-31T05:15:51;4.97;;;3.85;;
16354;SDS011;8287;51.644;8.494;2023-10-31T05:18:18;8.65;;;3.80;;
16354;SDS011;8287;51.644;8.494;2023-10-31T05:20:45;6.40;;;3.88;;
16354;SDS011;8287;51.644;8.494;2023-10-31T05:23:11;7.35;;;3.30;;
16354;SDS011;8287;51.644;8.494;2023-10-31T05:25:39;2.65;;;2.05;;
16354;SDS011;8287;51.644;8.494;2023-10-31T05:28:05;4.05;;;2.28;;
16354;SDS011;8287;51.644;8.494;2023-10-31T05:30:33;1.92;;;1.83;;
16354;SDS011;8287;51.644;8.494;2023-10-31T05:33:00;2.25;;;1.67;;
16354;SDS011;8287;51.644;8.494;2023-10-31T05:35:27;1.60;;;1.50;;
16354;SDS011;8287;51.644;8.494;2023-10-31T05:37:53;2.13;;;1.90;;
16354;SDS011;8287;51.644;8.494;2023-10-31T05:40:20;3.92;;;1.65;;
16354;SDS011;8287;51.644;8.494;2023-10-31T05:42:47;1.77;;;1.30;;
16354;SDS011;8287;51.644;8.494;2023-10-31T05:45:14;1.50;;;1.40;;
16354;SDS011;8287;51.644;8.494;2023-10-31T05:47:42;2.65;;;1.98;;
16354;SDS011;8287;51.644;8.494;2023-10-31T05:50:08;2.60;;;1.50;;
16354;SDS011;8287;51.644;8.494;2023-10-31T05:52:35;1.95;;;1.70;;
16354;SDS011;8287;51.644;8.494;2023-10-31T05:55:02;1.38;;;1.20;;
16354;SDS011;8287;51.644;8.494;2023-10-31T05:57:29;1.48;;;1.38;;
16354;SDS011;8287;51.644;8.494;2023-10-31T05:59:56;2.28;;;1.30;;
16354;SDS011;8287;51.644;8.494;2023-10-31T06:02:22;1.95;;;1.85;;
16354;SDS011;8287;51.644;8.494;2023-10-31T06:04:50;2.78;;;1.60;;
16354;SDS011;8287;51.644;8.494;2023-10-31T06:07:17;3.58;;;1.90;;
16354;SDS011;8287;51.644;8.494;2023-10-31T06:09:44;1.90;;;1.80;;
16354;SDS011;8287;51.644;8.494;2023-10-31T06:12:10;3.78;;;2.00;;
16354;SDS011;8287;51.644;8.494;2023-10-31T06:14:37;2.13;;;1.95;;
16354;SDS011;8287;51.644;8.494;2023-10-31T06:17:03;2.08;;;1.88;;
16354;SDS011;8287;51.644;8.494;2023-10-31T06:19:33;1.95;;;1.75;;
16354;SDS011;8287;51.644;8.494;2023-10-31T06:22:01;2.53;;;2.08;;
16354;SDS011;8287;51.644;8.494;2023-10-31T06:24:28;2.40;;;2.20;;
16354;SDS011;8287;51.644;8.494;2023-10-31T06:26:55;2.90;;;2.30;;
16354;SDS011;8287;51.644;8.494;2023-10-31T06:29:21;2.53;;;2.33;;
16354;SDS011;8287;51.644;8.494;2023-10-31T06:31:48;3.80;;;2.28;;
16354;SDS011;8287;51.644;8.494;2023-10-31T06:34:15;2.50;;;2.28;;
16354;SDS011;8287;51.644;8.494;2023-10-31T06:36:41;2.33;;;2.13;;
16354;SDS011;8287;51.644;8.494;2023-10-31T06:39:09;2.58;;;2.38;;
16354;SDS011;8287;51.644;8.494;2023-10-31T06:41:36;2.33;;;2.10;;
16354;SDS011;8287;51.644;8.494;2023-10-31T06:44:03;2.75;;;2.22;;
16354;SDS011;8287;51.644;8.494;2023-10-31T06:46:30;2.95;;;2.30;;
16354;SDS011;8287;51.644;8.494;2023-10-31T06:48:56;2.13;;;1.95;;
16354;SDS011;8287;51.644;8.494;2023-10-31T06:51:23;4.55;;;2.05;;
16354;SDS011;8287;51.644;8.494;2023-10-31T06:53:49;1.77;;;1.67;;
16354;SDS011;8287;51.644;8.494;2023-10-31T06:56:18;1.77;;;1.67;;
16354;SDS011;8287;51.644;8.494;2023-10-31T06:58:45;2.63;;;1.50;;
16354;SDS011;8287;51.644;8.494;2023-10-31T07:01:11;2.15;;;2.00;;
16354;SDS011;8287;51.644;8.494;2023-10-31T07:03:39;3.33;;;2.65;;
16354;SDS011;8287;51.644;8.494;2023-10-31T07:06:06;3.60;;;3.03;;
16354;SDS011;8287;51.644;8.494;2023-10-31T07:08:32;3.72;;;3.05;;
16354;SDS011;8287;51.644;8.494;2023-10-31T07:10:59;3.45;;;3.15;;
16354;SDS011;8287;51.644;8.494;2023-10-31T07:13:27;4.68;;;3.20;;
16354;SDS011;8287;51.644;8.494;2023-10-31T07:15:53;4.10;;;3.65;;
16354;SDS011;8287;51.644;8.494;2023-10-31T07:18:20;3.90;;;3.28;;
16354;SDS011;8287;51.644;8.494;2023-10-31T07:20:47;3.55;;;3.25;;
16354;SDS011;8287;51.644;8.494;2023-10-31T07:23:13;5.32;;;3.22;;
16354;SDS011;8287;51.644;8.494;2023-10-31T07:25:40;4.45;;;4.05;;
16354;SDS011;8287;51.644;8.494;2023-10-31T07:28:07;4.35;;;3.70;;
16354;SDS011;8287;51.644;8.494;2023-10-31T07:30:35;4.88;;;4.22;;
16354;SDS011;8287;51.644;8.494;2023-10-31T07:33:01;4.88;;;4.38;;
16354;SDS011;8287;51.644;8.494;2023-10-31T07:35:28;4.97;;;4.32;;
16354;SDS011;8287;51.644;8.494;2023-10-31T07:37:54;5.40;;;4.90;;
16354;SDS011;8287;51.644;8.494;2023-10-31T07:40:21;5.80;;;4.95;;
16354;SDS011;8287;51.644;8.494;2023-10-31T07:42:47;6.45;;;5.18;;
16354;SDS011;8287;51.644;8.494;2023-10-31T07:45:14;4.47;;;4.00;;
16354;SDS011;8287;51.644;8.494;2023-10-31T07:47:42;8.65;;;5.32;;
16354;SDS011;8287;51.644;8.494;2023-10-31T07:50:09;5.47;;;4.40;;
16354;SDS011;8287;51.644;8.494;2023-10-31T07:52:36;5.20;;;4.65;;
16354;SDS011;8287;51.644;8.494;2023-10-31T07:55:02;7.43;;;4.55;;
16354;SDS011;8287;51.644;8.494;2023-10-31T07:57:29;6.80;;;5.15;;
16354;SDS011;8287;51.644;8.494;2023-10-31T07:59:56;6.78;;;5.40;;
16354;SDS011;8287;51.644;8.494;2023-10-31T08:02:22;6.82;;;5.38;;
16354;SDS011;8287;51.644;8.494;2023-10-31T08:04:50;6.65;;;5.10;;
16354;SDS011;8287;51.644;8.494;2023-10-31T08:07:17;7.43;;;5.28;;
16354;SDS011;8287;51.644;8.494;2023-10-31T08:09:43;7.10;;;5.35;;
16354;SDS011;8287;51.644;8.494;2023-10-31T08:12:10;7.72;;;5.80;;
16354;SDS011;8287;51.644;8.494;2023-10-31T08:14:36;9.20;;;6.88;;
16354;SDS011;8287;51.644;8.494;2023-10-31T08:17:03;6.28;;;5.25;;
16354;SDS011;8287;51.644;8.494;2023-10-31T08:19:29;6.97;;;4.65;;
16354;SDS011;8287;51.644;8.494;2023-10-31T08:21:57;6.28;;;5.30;;
16354;SDS011;8287;51.644;8.494;2023-10-31T08:24:24;5.78;;;4.50;;
16354;SDS011;8287;51.644;8.494;2023-10-31T08:26:50;8.25;;;6.45;;
16354;SDS011;8287;51.644;8.494;2023-10-31T08:29:17;8.10;;;4.97;;
16354;SDS011;8287;51.644;8.494;2023-10-31T08:31:44;8.52;;;6.18;;
16354;SDS011;8287;51.644;8.494;2023-10-31T08:34:10;9.30;;;6.72;;
16354;SDS011;8287;51.644;8.494;2023-10-31T08:36:37;7.65;;;6.13;;
16354;SDS011;8287;51.644;8.494;2023-10-31T08:39:05;7.80;;;5.75;;
16354;SDS011;8287;51.644;8.494;2023-10-31T08:41:32;10.45;;;6.97;;
16354;SDS011;8287;51.644;8.494;2023-10-31T08:43:59;9.20;;;6.07;;
16354;SDS011;8287;51.644;8.494;2023-10-31T08:46:28;7.72;;;6.40;;
16354;SDS011;8287;51.644;8.494;2023-10-31T08:48:55;7.35;;;6.50;;
16354;SDS011;8287;51.644;8.494;2023-10-31T08:51:21;7.85;;;7.00;;
16354;SDS011;8287;51.644;8.494;2023-10-31T08:53:48;7.75;;;6.80;;
16354;SDS011;8287;51.644;8.494;2023-10-31T08:56:16;6.97;;;6.28;;
16354;SDS011;8287;51.644;8.494;2023-10-31T08:58:44;8.48;;;6.35;;
16354;SDS011;8287;51.644;8.494;2023-10-31T09:01:11;7.03;;;6.28;;
16354;SDS011;8287;51.644;8.494;2023-10-31T09:03:37;9.15;;;7.65;;
16354;SDS011;8287;51.644;8.494;2023-10-31T09:06:04;9.35;;;7.00;;
16354;SDS011;8287;51.644;8.494;2023-10-31T09:08:31;6.75;;;6.13;;
16354;SDS011;8287;51.644;8.494;2023-10-31T09:10:59;9.85;;;6.80;;
16354;SDS011;8287;51.644;8.494;2023-10-31T09:13:27;9.23;;;7.70;;
16354;SDS011;8287;51.644;8.494;2023-10-31T09:15:53;7.28;;;6.53;;
16354;SDS011;8287;51.644;8.494;2023-10-31T09:18:20;7.47;;;6.32;;
16354;SDS011;8287;51.644;8.494;2023-10-31T09:20:47;8.05;;;6.18;;
16354;SDS011;8287;51.644;8.494;2023-10-31T09:23:13;6.75;;;6.07;;
16354;SDS011;8287;51.644;8.494;2023-10-31T09:25:40;5.95;;;5.40;;
16354;SDS011;8287;51.644;8.494;2023-10-31T09:28:06;6.30;;;5.72;;
16354;SDS011;8287;51.644;8.494;2023-10-31T09:30:34;6.78;;;5.43;;
16354;SDS011;8287;51.644;8.494;2023-10-31T09:33:01;9.57;;;4.82;;
16354;SDS011;8287;51.644;8.494;2023-10-31T09:35:27;7.13;;;5.47;;
16354;SDS011;8287;51.644;8.494;2023-10-31T09:37:54;6.68;;;4.90;;
16354;SDS011;8287;51.644;8.494;2023-10-31T09:40:21;5.43;;;4.57;;
16354;SDS011;8287;51.644;8.494;2023-10-31T09:42:48;6.60;;;4.95;;
16354;SDS011;8287;51.644;8.494;2023-10-31T09:45:15;6.20;;;5.63;;
16354;SDS011;8287;51.644;8.494;2023-10-31T09:47:44;5.80;;;4.75;;
16354;SDS011;8287;51.644;8.494;2023-10-31T09:50:11;10.18;;;5.57;;
16354;SDS011;8287;51.644;8.494;2023-10-31T09:52:37;6.97;;;5.07;;
16354;SDS011;8287;51.644;8.494;2023-10-31T09:55:05;4.47;;;4.05;;
16354;SDS011;8287;51.644;8.494;2023-10-31T09:57:32;6.03;;;4.88;;
16354;SDS011;8287;51.644;8.494;2023-10-31T09:59:59;5.13;;;4.63;;
16354;SDS011;8287;51.644;8.494;2023-10-31T10:02:26;5.35;;;4.57;;
16354;SDS011;8287;51.644;8.494;2023-10-31T10:04:54;6.18;;;4.60;;
16354;SDS011;8287;51.644;8.494;2023-10-31T10:07:20;5.32;;;4.13;;
16354;SDS011;8287;51.644;8.494;2023-10-31T10:09:47;5.93;;;4.30;;
16354;SDS011;8287;51.644;8.494;2023-10-31T10:12:14;4.80;;;4.05;;
16354;SDS011;8287;51.644;8.494;2023-10-31T10:14:44;5.15;;;3.95;;
16354;SDS011;8287;51.644;8.494;2023-10-31T10:17:15;4.28;;;3.78;;
16354;SDS011;8287;51.644;8.494;2023-10-31T10:19:43;5.20;;;4.35;;
16354;SDS011;8287;51.644;8.494;2023-10-31T10:22:11;5.53;;;4.68;;
16354;SDS011;8287;51.644;8.494;2023-10-31T10:24:39;4.68;;;4.05;;
16354;SDS011;8287;51.644;8.494;2023-10-31T10:27:06;7.63;;;5.53;;
16354;SDS011;8287;51.644;8.494;2023-10-31T10:29:34;7.90;;;5.38;;
16354;SDS011;8287;51.644;8.494;2023-10-31T10:32:00;6.07;;;4.93;;
16354;SDS011;8287;51.644;8.494;2023-10-31T10:34:27;6.50;;;4.28;;
16354;SDS011;8287;51.644;8.494;2023-10-31T10:36:54;4.22;;;3.40;;
16354;SDS011;8287;51.644;8.494;2023-10-31T10:39:24;4.55;;;4.15;;
16354;SDS011;8287;51.644;8.494;2023-10-31T10:41:52;7.75;;;3.88;;
16354;SDS011;8287;51.644;8.494;2023-10-31T10:44:24;4.50;;;4.10;;
16354;SDS011;8287;51.644;8.494;2023-10-31T10:46:58;4.95;;;3.90;;
16354;SDS011;8287;51.644;8.494;2023-10-31T10:49:28;6.22;;;3.70;;
16354;SDS011;8287;51.644;8.494;2023-10-31T10:51:58;7.57;;;6.05;;
16354;SDS011;8287;51.644;8.494;2023-10-31T10:54:33;6.65;;;4.05;;
16354;SDS011;8287;51.644;8.494;2023-10-31T10:57:05;6.60;;;3.83;;
16354;SDS011;8287;51.644;8.494;2023-10-31T10:59:41;7.03;;;3.58;;
16354;SDS011;8287;51.644;8.494;2023-10-31T11:02:09;8.63;;;3.45;;
16354;SDS011;8287;51.644;8.494;2023-10-31T11:04:38;3.20;;;2.90;;
16354;SDS011;8287;51.644;8.494;2023-10-31T11:07:08;3.92;;;2.70;;
16354;SDS011;8287;51.644;8.494;2023-10-31T11:09:37;3.00;;;2.45;;
16354;SDS011;8287;51.644;8.494;2023-10-31T11:12:04;2.40;;;2.20;;
16354;SDS011;8287;51.644;8.494;2023-10-31T11:14:32;2.42;;;2.20;;
16354;SDS011;8287;51.644;8.494;2023-10-31T11:17:01;3.90;;;2.25;;
16354;SDS011;8287;51.644;8.494;2023-10-31T11:19:33;2.10;;;2.00;;
16354;SDS011;8287;51.644;8.494;2023-10-31T11:22:01;3.40;;;2.00;;
16354;SDS011;8287;51.644;8.494;2023-10-31T11:24:32;10.30;;;9.20;;
16354;SDS011;8287;51.644;8.494;2023-10-31T11:27:01;9.20;;;4.00;;
16354;SDS011;8287;51.644;8.494;2023-10-31T11:29:30;3.97;;;2.97;;
16354;SDS011;8287;51.644;8.494;2023-10-31T11:31:57;4.53;;;3.20;;
16354;SDS011;8287;51.644;8.494;2023-10-31T11:34:25;2.80;;;2.55;;
16354;SDS011;8287;51.644;8.494;2023-10-31T11:36:53;3.10;;;2.88;;
16354;SDS011;8287;51.644;8.494;2023-10-31T11:39:20;4.22;;;3.00;;
16354;SDS011;8287;51.644;8.494;2023-10-31T11:41:51;4.85;;;2.92;;
16354;SDS011;8287;51.644;8.494;2023-10-31T11:44:23;3.60;;;3.03;;
16354;SDS011;8287;51.644;8.494;2023-10-31T11:46:52;3.30;;;2.95;;
16354;SDS011;8287;51.644;8.494;2023-10-31T11:49:30;5.90;;;3.83;;
16354;SDS011;8287;51.644;8.494;2023-10-31T11:52:14;6.55;;;4.00;;
16354;SDS011;8287;51.644;8.494;2023-10-31T11:54:41;6.57;;;3.70;;
16354;SDS011;8287;51.644;8.494;2023-10-31T11:57:08;7.38;;;4.00;;
16354;SDS011;8287;51.644;8.494;2023-10-31T11:59:36;7.25;;;5.00;;
16354;SDS011;8287;51.644;8.494;2023-10-31T12:02:12;5.18;;;4.30;;
16354;SDS011;8287;51.644;8.494;2023-10-31T12:04:39;4.82;;;4.00;;
16354;SDS011;8287;51.644;8.494;2023-10-31T12:07:05;8.00;;;4.20;;
16354;SDS011;8287;51.644;8.494;2023-10-31T12:09:32;4.22;;;3.78;;
16354;SDS011;8287;51.644;8.494;2023-10-31T12:11:59;6.70;;;3.55;;
16354;SDS011;8287;51.644;8.494;2023-10-31T12:14:25;6.15;;;3.90;;
16354;SDS011;8287;51.644;8.494;2023-10-31T12:16:53;7.55;;;3.92;;
16354;SDS011;8287;51.644;8.494;2023-10-31T12:19:20;7.63;;;4.28;;
16354;SDS011;8287;51.644;8.494;2023-10-31T12:21:47;6.80;;;3.20;;
16354;SDS011;8287;51.644;8.494;2023-10-31T12:24:15;4.22;;;3.50;;
16354;SDS011;8287;51.644;8.494;2023-10-31T12:26:45;10.80;;;5.72;;
16354;SDS011;8287;51.644;8.494;2023-10-31T12:29:13;8.32;;;3.90;;
16354;SDS011;8287;51.644;8.494;2023-10-31T12:31:44;9.57;;;4.32;;
16354;SDS011;8287;51.644;8.494;2023-10-31T12:34:13;8.07;;;3.45;;
16354;SDS011;8287;51.644;8.494;2023-10-31T12:36:40;12.48;;;4.53;;
16354;SDS011;8287;51.644;8.494;2023-10-31T12:39:09;7.18;;;3.80;;
16354;SDS011;8287;51.644;8.494;2023-10-31T12:41:37;13.63;;;4.05;;
16354;SDS011;8287;51.644;8.494;2023-10-31T12:44:05;13.07;;;4.15;;
16354;SDS011;8287;51.644;8.494;2023-10-31T12:46:33;3.25;;;2.95;;
16354;SDS011;8287;51.644;8.494;2023-10-31T12:49:00;6.43;;;3.30;;
16354;SDS011;8287;51.644;8.494;2023-10-31T12:51:28;4.97;;;3.08;;
16354;SDS011;8287;51.644;8.494;2023-10-31T12:53:54;7.07;;;3.00;;
16354;SDS011;8287;51.644;8.494;2023-10-31T12:56:34;6.72;;;2.90;;
16354;SDS011;8287;51.644;8.494;2023-10-31T12:59:03;3.30;;;2.80;;
16354;SDS011;8287;51.644;8.494;2023-10-31T13:01:30;6.13;;;3.38;;
16354;SDS011;8287;51.644;8.494;2023-10-31T13:03:57;4.40;;;2.80;;
16354;SDS011;8287;51.644;8.494;2023-10-31T13:06:23;3.97;;;2.72;;
16354;SDS011;8287;51.644;8.494;2023-10-31T13:08:51;7.22;;;3.00;;
16354;SDS011;8287;51.644;8.494;2023-10-31T13:11:21;4.75;;;3.10;;
16354;SDS011;8287;51.644;8.494;2023-10-31T13:13:50;7.25;;;2.80;;
16354;SDS011;8287;51.644;8.494;2023-10-31T13:16:17;4.47;;;2.78;;
16354;SDS011;8287;51.644;8.494;2023-10-31T13:18:44;6.60;;;2.80;;
16354;SDS011;8287;51.644;8.494;2023-10-31T13:21:10;5.13;;;3.03;;
16354;SDS011;8287;51.644;8.494;2023-10-31T13:23:39;11.55;;;6.85;;
16354;SDS011;8287;51.644;8.494;2023-10-31T13:26:09;5.85;;;2.88;;
16354;SDS011;8287;51.644;8.494;2023-10-31T13:28:36;5.32;;;3.28;;
16354;SDS011;8287;51.644;8.494;2023-10-31T13:31:04;5.70;;;2.90;;
16354;SDS011;8287;51.644;8.494;2023-10-31T13:33:30;7.13;;;2.70;;
16354;SDS011;8287;51.644;8.494;2023-10-31T13:35:57;3.63;;;2.40;;
16354;SDS011;8287;51.644;8.494;2023-10-31T13:38:24;6.22;;;2.70;;
16354;SDS011;8287;51.644;8.494;2023-10-31T13:40:50;4.95;;;3.28;;
16354;SDS011;8287;51.644;8.494;2023-10-31T13:43:18;4.07;;;2.65;;
16354;SDS011;8287;51.644;8.494;2023-10-31T13:45:45;11.00;;;3.35;;
16354;SDS011;8287;51.644;8.494;2023-10-31T13:48:11;7.07;;;2.70;;
16354;SDS011;8287;51.644;8.494;2023-10-31T13:50:39;7.60;;;2.70;;
16354;SDS011;8287;51.644;8.494;2023-10-31T13:53:06;8.60;;;2.72;;
16354;SDS011;8287;51.644;8.494;2023-10-31T13:55:33;5.70;;;2.50;;
16354;SDS011;8287;51.644;8.494;2023-10-31T13:58:00;4.10;;;2.13;;
16354;SDS011;8287;51.644;8.494;2023-10-31T14:00:28;6.47;;;2.25;;
16354;SDS011;8287;51.644;8.494;2023-10-31T14:02:54;3.40;;;2.25;;
16354;SDS011;8287;51.644;8.494;2023-10-31T14:05:21;5.47;;;2.28;;
16354;SDS011;8287;51.644;8.494;2023-10-31T14:07:49;3.25;;;2.00;;
16354;SDS011;8287;51.644;8.494;2023-10-31T14:10:16;6.43;;;2.35;;
16354;SDS011;8287;51.644;8.494;2023-10-31T14:12:45;5.20;;;2.05;;
16354;SDS011;8287;51.644;8.494;2023-10-31T14:15:12;9.55;;;2.50;;
16354;SDS011;8287;51.644;8.494;2023-10-31T14:17:40;6.40;;;2.28;;
16354;SDS011;8287;51.644;8.494;2023-10-31T14:20:07;3.35;;;2.15;;
16354;SDS011;8287;51.644;8.494;2023-10-31T14:22:34;4.50;;;2.20;;
16354;SDS011;8287;51.644;8.494;2023-10-31T14:25:03;3.35;;;1.80;;
16354;SDS011;8287;51.644;8.494;2023-10-31T14:27:32;3.45;;;1.90;;
16354;SDS011;8287;51.644;8.494;2023-10-31T14:29:59;2.38;;;1.92;;
16354;SDS011;8287;51.644;8.494;2023-10-31T14:32:26;4.95;;;2.08;;
16354;SDS011;8287;51.644;8.494;2023-10-31T14:34:54;4.97;;;2.30;;
16354;SDS011;8287;51.644;8.494;2023-10-31T14:37:21;3.28;;;1.80;;
16354;SDS011;8287;51.644;8.494;2023-10-31T14:39:47;2.53;;;1.80;;
16354;SDS011;8287;51.644;8.494;2023-10-31T14:42:14;3.88;;;1.90;;
16354;SDS011;8287;51.644;8.494;2023-10-31T14:44:41;4.35;;;1.90;;
16354;SDS011;8287;51.644;8.494;2023-10-31T14:47:08;6.07;;;2.42;;
16354;SDS011;8287;51.644;8.494;2023-10-31T14:49:34;6.15;;;2.30;;
16354;SDS011;8287;51.644;8.494;2023-10-31T14:52:02;3.70;;;1.90;;
16354;SDS011;8287;51.644;8.494;2023-10-31T14:54:31;5.07;;;2.42;;
16354;SDS011;8287;51.644;8.494;2023-10-31T14:56:59;7.63;;;2.40;;
16354;SDS011;8287;51.644;8.494;2023-10-31T14:59:26;4.78;;;2.35;;
16354;SDS011;8287;51.644;8.494;2023-10-31T15:01:53;6.65;;;3.00;;